createdAt,value
2022-10-11T00:01:02.266Z,100836.42
2022-10-11T00:03:36.657Z,100837.52
2022-10-11T00:06:06.637Z,100835.67
2022-10-11T00:08:35.722Z,100833.95
2022-10-11T00:11:06.442Z,100834.02
2022-10-11T00:13:34.572Z,100834.72
2022-10-11T00:16:08.877Z,100834.25
2022-10-11T00:18:46.519Z,100824.55
2022-10-11T00:21:16.504Z,100839.14
2022-10-11T00:23:44.346Z,100836.67
2022-10-11T00:26:12.399Z,100837.27
2022-10-11T00:28:41.741Z,100837.70
2022-10-11T00:31:15.796Z,100840.20
2022-10-11T00:33:44.281Z,100836.31
2022-10-11T00:36:16.877Z,100838.42
2022-10-11T00:38:45.938Z,100837.64
2022-10-11T00:41:14.365Z,100831.48
2022-10-11T00:43:42.795Z,100832.08
2022-10-11T00:46:13.908Z,100831.98
2022-10-11T00:48:48.998Z,100832.66
2022-10-11T00:51:23.970Z,100827.33
2022-10-11T00:53:53.660Z,100825.14
2022-10-11T00:56:26.574Z,100824.16
2022-10-11T00:58:56.163Z,100805.27
2022-10-11T01:01:24.189Z,100821.66
2022-10-11T01:03:52.351Z,100812.86
2022-10-11T01:06:20.136Z,100814.23
2022-10-11T01:08:50.207Z,100816.27
2022-10-11T01:11:21.594Z,100815.17
2022-10-11T01:14:06.412Z,100813.95
2022-10-11T01:16:37.153Z,100811.10
2022-10-11T01:19:27.451Z,100791.98
2022-10-11T01:22:35.157Z,100803.77
2022-10-11T01:25:48.384Z,100795.05
2022-10-11T01:28:16.489Z,100794.08
2022-10-11T01:30:45.763Z,100795.08
2022-10-11T01:33:16.799Z,100800.48
2022-10-11T01:36:17.399Z,100798.03
2022-10-11T01:38:54.929Z,100799.77
2022-10-11T01:41:31.392Z,100801.97
2022-10-11T01:44:02.544Z,100796.72
2022-10-11T01:46:31.412Z,100798.52
2022-10-11T01:49:02.134Z,100797.29
2022-10-11T01:51:38.595Z,100797.75
2022-10-11T01:54:11.793Z,100791.54
2022-10-11T01:56:49.839Z,100775.84
2022-10-11T01:59:46.052Z,100781.84
2022-10-11T02:02:38.944Z,100777.89
2022-10-11T02:05:07.007Z,100765.80
2022-10-11T02:07:49.327Z,100784.98
2022-10-11T02:10:33.334Z,100786.12
2022-10-11T02:13:17.279Z,100784.72
2022-10-11T02:15:48.608Z,100791.26
2022-10-11T02:18:23.232Z,100790.53
2022-10-11T02:20:53.135Z,100784.62
2022-10-11T02:23:28.354Z,100785.17
2022-10-11T02:25:58.077Z,100778.81
2022-10-11T02:28:31.925Z,100780.82
2022-10-11T02:31:02.217Z,100778.45
2022-10-11T02:33:39.016Z,100781.98
2022-10-11T02:36:25.370Z,100779.45
2022-10-11T02:38:59.737Z,100783.41
2022-10-11T02:41:36.563Z,100786.80
2022-10-11T02:44:13.908Z,100788.42
2022-10-11T02:46:43.918Z,100789.00
2022-10-11T02:49:13.429Z,100791.79
2022-10-11T02:51:41.508Z,100792.65
2022-10-11T02:54:09.535Z,100790.27
2022-10-11T02:56:37.541Z,100791.18
2022-10-11T02:59:05.419Z,100793.14
2022-10-11T03:01:33.606Z,100788.62
2022-10-11T03:04:01.551Z,100780.07
2022-10-11T03:06:29.466Z,100794.10
2022-10-11T03:08:57.346Z,100800.73
2022-10-11T03:11:26.120Z,100800.70
2022-10-11T03:13:54.005Z,100801.42
2022-10-11T03:16:22.063Z,100801.35
2022-10-11T03:18:50.235Z,100800.78
2022-10-11T03:21:18.744Z,100795.44
2022-10-11T03:23:46.585Z,100800.09
2022-10-11T03:26:14.588Z,100797.73
2022-10-11T03:28:42.646Z,100802.48
2022-10-11T03:31:10.594Z,100810.86
2022-10-11T03:33:38.788Z,100812.31
2022-10-11T03:36:09.273Z,100796.61
2022-10-11T03:38:37.342Z,100796.41
2022-10-11T03:41:05.453Z,100803.88
2022-10-11T03:43:33.575Z,100809.23
2022-10-11T03:46:01.657Z,100816.72
2022-10-11T03:48:29.938Z,100823.45
2022-10-11T03:50:58.186Z,100833.64
2022-10-11T03:53:26.165Z,100834.94
2022-10-11T03:55:55.407Z,100837.16
2022-10-11T03:58:24.205Z,100835.39
2022-10-11T04:00:53.970Z,100829.80
2022-10-11T04:03:21.856Z,100831.69
2022-10-11T04:05:50.193Z,100831.58
2022-10-11T04:08:17.971Z,100829.92
2022-10-11T04:10:45.866Z,100834.61
2022-10-11T04:13:13.981Z,100828.15
2022-10-11T04:15:41.894Z,100832.42
2022-10-11T04:18:10.172Z,100830.23
2022-10-11T04:20:38.287Z,100827.73
2022-10-11T04:23:06.440Z,100829.02
2022-10-11T04:25:34.412Z,100831.53
2022-10-11T04:28:02.948Z,100834.04
2022-10-11T04:30:30.859Z,100836.84
2022-10-11T04:32:59.384Z,100846.17
2022-10-11T04:35:27.731Z,100848.64
2022-10-11T04:37:55.861Z,100853.52
2022-10-11T04:40:24.109Z,100862.13
2022-10-11T04:42:54.113Z,100863.25
2022-10-11T04:45:22.284Z,100870.91
2022-10-11T04:47:50.883Z,100868.33
2022-10-11T04:50:20.291Z,100868.73
2022-10-11T04:52:48.337Z,100871.96
2022-10-11T04:55:17.016Z,100875.44
2022-10-11T04:57:44.992Z,100873.03
2022-10-11T05:00:13.369Z,100869.66
2022-10-11T05:02:41.529Z,100872.35
2022-10-11T05:05:10.179Z,100875.36
2022-10-11T05:07:38.350Z,100877.46
2022-10-11T05:10:07.026Z,100827.73
2022-10-11T05:12:35.159Z,100871.57
2022-10-11T05:15:03.446Z,100891.15
2022-10-11T05:17:31.379Z,100894.31
2022-10-11T05:19:59.311Z,100895.09
2022-10-11T05:22:27.481Z,100898.36
2022-10-11T05:24:55.507Z,100896.35
2022-10-11T05:27:23.546Z,100883.52
2022-10-11T05:29:51.521Z,100896.41
2022-10-11T05:32:19.824Z,100902.92
2022-10-11T05:34:47.872Z,100904.49
2022-10-11T05:37:16.034Z,100888.70
2022-10-11T05:39:43.957Z,100910.04
2022-10-11T05:42:12.016Z,100910.13
2022-10-11T05:44:40.038Z,100916.96
2022-10-11T05:47:08.032Z,100916.80
2022-10-11T05:49:36.045Z,100913.93
2022-10-11T05:52:04.059Z,100913.46
2022-10-11T05:54:32.546Z,100919.36
2022-10-11T05:57:00.656Z,100921.52
2022-10-11T05:59:28.666Z,100924.58
2022-10-11T06:01:56.696Z,100929.60
2022-10-11T06:04:24.877Z,100934.26
2022-10-11T06:06:53.072Z,100936.48
2022-10-11T06:09:21.129Z,100941.64
2022-10-11T06:11:49.044Z,100932.88
2022-10-11T06:14:16.951Z,100952.11
2022-10-11T06:16:44.984Z,100961.58
2022-10-11T06:19:13.017Z,100965.59
2022-10-11T06:21:41.118Z,100969.98
2022-10-11T06:24:09.479Z,100973.91
2022-10-11T06:26:37.517Z,100978.52
2022-10-11T06:29:05.656Z,100983.61
2022-10-11T06:31:34.391Z,100993.05
2022-10-11T06:34:02.623Z,100994.55
2022-10-11T06:36:31.005Z,101000.15
2022-10-11T06:39:01.586Z,101004.64
2022-10-11T06:41:30.763Z,101004.89
2022-10-11T06:43:58.729Z,101011.74
2022-10-11T06:46:28.412Z,101015.18
2022-10-11T06:48:56.772Z,101022.77
2022-10-11T06:51:25.596Z,101018.11
2022-10-11T06:53:58.267Z,101019.69
2022-10-11T06:56:27.916Z,101021.21
2022-10-11T06:58:57.707Z,101015.09
2022-10-11T07:01:26.679Z,101025.69
2022-10-11T07:03:57.706Z,101047.45
2022-10-11T07:06:28.286Z,101055.51
2022-10-11T07:08:56.857Z,101060.87
2022-10-11T07:11:27.120Z,101062.93
2022-10-11T07:14:01.386Z,101066.31
2022-10-11T07:16:29.342Z,101070.23
2022-10-11T07:19:00.935Z,101077.09
2022-10-11T07:21:30.818Z,101079.78
2022-10-11T07:23:59.426Z,101080.71
2022-10-11T07:26:32.434Z,101080.45
2022-10-11T07:29:05.936Z,101087.21
2022-10-11T07:31:33.924Z,101090.88
2022-10-11T07:34:01.730Z,101098.59
2022-10-11T07:36:29.978Z,101099.27
2022-10-11T07:38:57.888Z,101103.01
2022-10-11T07:41:25.822Z,101102.55
2022-10-11T07:43:55.024Z,101111.48
2022-10-11T07:46:23.054Z,101110.38
2022-10-11T07:48:50.996Z,101114.40
2022-10-11T07:51:22.962Z,101113.31
2022-10-11T07:53:56.622Z,101119.76
2022-10-11T07:56:32.406Z,101122.51
2022-10-11T07:59:03.787Z,101128.84
2022-10-11T08:01:32.398Z,101126.84
2022-10-11T08:04:00.728Z,101132.71
2022-10-11T08:06:32.552Z,101131.40
2022-10-11T08:09:02.067Z,101136.59
2022-10-11T08:11:33.644Z,101136.25
2022-10-11T08:14:04.564Z,101140.33
2022-10-11T08:16:33.516Z,101141.60
2022-10-11T08:19:03.240Z,101142.45
2022-10-11T08:21:34.275Z,101142.89
2022-10-11T08:24:03.967Z,101144.64
2022-10-11T08:26:33.367Z,101152.33
2022-10-11T08:29:03.539Z,101154.02
2022-10-11T08:31:32.727Z,101154.01
2022-10-11T08:34:00.688Z,101156.38
2022-10-11T08:36:28.918Z,101153.58
2022-10-11T08:38:57.396Z,101152.50
2022-10-11T08:41:28.551Z,101153.06
2022-10-11T08:43:56.809Z,101155.58
2022-10-11T08:46:31.264Z,101156.51
2022-10-11T08:49:01.682Z,101162.73
2022-10-11T08:52:02.852Z,101157.08
2022-10-11T08:54:48.170Z,101143.59
2022-10-11T08:57:37.396Z,101160.91
2022-10-11T09:00:14.169Z,101160.02
2022-10-11T09:03:21.946Z,101162.70
2022-10-11T09:06:32.039Z,101164.44
2022-10-11T09:09:18.279Z,101166.30
2022-10-11T09:11:49.224Z,101172.31
2022-10-11T09:14:34.531Z,101172.38
2022-10-11T09:17:20.856Z,101172.88
2022-10-11T09:20:01.354Z,101157.36
2022-10-11T09:23:09.876Z,101178.02
2022-10-11T09:26:04.117Z,101184.75
2022-10-11T09:28:46.435Z,101186.38
2022-10-11T09:31:16.012Z,101189.46
2022-10-11T09:33:49.367Z,101194.33
2022-10-11T09:36:20.576Z,101193.88
2022-10-11T09:38:57.591Z,101196.85
2022-10-11T09:41:36.985Z,101195.96
2022-10-11T09:44:07.284Z,101193.13
2022-10-11T09:46:40.582Z,101201.21
2022-10-11T09:49:14.543Z,101202.11
2022-10-11T09:51:47.771Z,101206.66
2022-10-11T09:54:27.456Z,101203.27
2022-10-11T09:56:55.769Z,101194.49
2022-10-11T09:59:35.915Z,101208.07
2022-10-11T10:02:13.916Z,101211.71
2022-10-11T10:05:00.716Z,101209.20
2022-10-11T10:07:31.759Z,101208.80
2022-10-11T10:10:09.720Z,101211.63
2022-10-11T10:12:37.956Z,101211.25
2022-10-11T10:15:19.209Z,101212.13
2022-10-11T10:17:52.148Z,101212.29
2022-10-11T10:20:24.905Z,101212.54
2022-10-11T10:22:54.144Z,101217.39
2022-10-11T10:25:30.371Z,101216.95
2022-10-11T10:28:01.294Z,101218.60
2022-10-11T10:30:35.225Z,101223.42
2022-10-11T10:33:11.480Z,101225.31
2022-10-11T10:35:45.732Z,101217.46
2022-10-11T10:38:25.546Z,101208.05
2022-10-11T10:41:01.562Z,101232.19
2022-10-11T10:43:34.956Z,101233.17
2022-10-11T10:46:12.325Z,101240.10
2022-10-11T10:49:19.166Z,101238.75
2022-10-11T10:51:50.845Z,101237.67
2022-10-11T10:54:30.726Z,101244.36
2022-10-11T10:57:03.757Z,101241.70
2022-10-11T10:59:45.289Z,101248.04
2022-10-11T11:02:39.804Z,101248.78
2022-10-11T11:05:26.309Z,101248.77
2022-10-11T11:08:17.256Z,101256.48
2022-10-11T11:10:57.797Z,101256.62
2022-10-11T11:13:37.902Z,101255.09
2022-10-11T11:16:37.404Z,101254.20
2022-10-11T11:19:05.450Z,101258.48
2022-10-11T11:22:07.004Z,101238.21
2022-10-11T11:24:40.884Z,101256.39
2022-10-11T11:27:18.548Z,101254.52
2022-10-11T11:30:00.614Z,101253.36
2022-10-11T11:33:00.842Z,101250.90
2022-10-11T11:35:38.157Z,101254.13
2022-10-11T11:38:40.659Z,101258.55
2022-10-11T11:41:29.904Z,101254.46
2022-10-11T11:44:15.971Z,101255.27
2022-10-11T11:46:45.641Z,101257.64
2022-10-11T11:49:38.078Z,101261.90
2022-10-11T11:52:08.590Z,101258.46
2022-10-11T11:55:00.180Z,101256.16
2022-10-11T11:57:47.044Z,101264.52
2022-10-11T12:00:23.832Z,101265.72
2022-10-11T12:03:03.795Z,101266.80
2022-10-11T12:05:36.256Z,101270.27
2022-10-11T12:08:24.274Z,101270.59
2022-10-11T12:11:01.564Z,101277.41
2022-10-11T12:13:38.094Z,101259.20
2022-10-11T12:16:14.833Z,101280.73
2022-10-11T12:18:54.325Z,101275.77
2022-10-11T12:21:33.430Z,101262.16
2022-10-11T12:24:15.145Z,101277.47
2022-10-11T12:26:45.572Z,101274.80
2022-10-11T12:29:27.432Z,101278.36
2022-10-11T12:32:00.397Z,101280.63
2022-10-11T12:34:36.711Z,101270.35
2022-10-11T12:37:20.130Z,101253.58
2022-10-11T12:39:58.984Z,101268.48
2022-10-11T12:42:34.745Z,101273.56
2022-10-11T12:45:14.781Z,101275.12
2022-10-11T12:48:01.799Z,101276.94
2022-10-11T12:50:48.044Z,101282.42
2022-10-11T12:53:41.156Z,101285.89
2022-10-11T12:56:45.408Z,101289.63
2022-10-11T12:59:22.759Z,101264.73
2022-10-11T13:01:53.766Z,101295.99
2022-10-11T13:04:29.263Z,101297.73
2022-10-11T13:07:06.755Z,101282.02
2022-10-11T13:09:44.167Z,101295.06
2022-10-11T13:12:23.476Z,101296.44
2022-10-11T13:15:07.215Z,101294.23
2022-10-11T13:17:38.778Z,101295.50
2022-10-11T13:20:16.467Z,101294.05
2022-10-11T13:22:47.914Z,101289.02
2022-10-11T13:25:23.828Z,101290.73
2022-10-11T13:27:53.636Z,101296.94
2022-10-11T13:30:27.905Z,101295.16
2022-10-11T13:32:59.386Z,101280.51
2022-10-11T13:35:30.842Z,101297.90
2022-10-11T13:37:59.630Z,101298.65
2022-10-11T13:40:28.592Z,101303.30
2022-10-11T13:42:57.710Z,101292.23
2022-10-11T13:45:30.675Z,101304.35
2022-10-11T13:47:59.231Z,101306.20
2022-10-11T13:50:33.782Z,101303.60
2022-10-11T13:53:12.258Z,101308.55
2022-10-11T13:55:53.622Z,101308.67
2022-10-11T13:58:28.749Z,101309.71
2022-10-11T14:01:06.817Z,101311.70
2022-10-11T14:03:44.002Z,101310.20
2022-10-11T14:06:12.550Z,101305.41
2022-10-11T14:08:48.582Z,101308.52
2022-10-11T14:11:33.756Z,101309.43
2022-10-11T14:14:28.601Z,101314.20
2022-10-11T14:17:13.155Z,101314.54
2022-10-11T14:19:42.792Z,101316.88
2022-10-11T14:22:17.282Z,101314.14
2022-10-11T14:24:48.705Z,101312.29
2022-10-11T14:27:20.726Z,101313.33
2022-10-11T14:30:12.884Z,101306.11
2022-10-11T14:32:42.344Z,101310.64
2022-10-11T14:35:23.765Z,101306.38
2022-10-11T14:37:52.507Z,101310.98
2022-10-11T14:40:27.332Z,101314.83
2022-10-11T14:42:55.406Z,101320.77
2022-10-11T14:45:24.489Z,101314.69
2022-10-11T14:47:52.497Z,101321.14
2022-10-11T14:50:47.978Z,101325.36
2022-10-11T14:53:16.832Z,101328.39
2022-10-11T14:55:45.150Z,101329.20
2022-10-11T14:58:15.791Z,101332.69
2022-10-11T15:00:44.799Z,101332.91
2022-10-11T15:03:14.122Z,101335.02
2022-10-11T15:05:42.318Z,101336.33
2022-10-11T15:08:15.359Z,101340.92
2022-10-11T15:10:43.204Z,101338.64
2022-10-11T15:13:11.265Z,101338.23
2022-10-11T15:15:41.563Z,101345.01
2022-10-11T15:18:13.233Z,101345.48
2022-10-11T15:20:45.326Z,101347.85
2022-10-11T15:23:13.661Z,101349.77
2022-10-11T15:25:42.269Z,101353.80
2022-10-11T15:28:24.147Z,101351.91
2022-10-11T15:30:52.770Z,101354.98
2022-10-11T15:33:21.524Z,101339.41
2022-10-11T15:35:49.706Z,101359.95
2022-10-11T15:38:23.168Z,101358.41
2022-10-11T15:40:52.385Z,101366.83
2022-10-11T15:43:24.503Z,101374.31
2022-10-11T15:45:55.005Z,101372.04
2022-10-11T15:48:26.443Z,101381.83
2022-10-11T15:50:55.171Z,101384.16
2022-10-11T15:53:28.675Z,101392.58
2022-10-11T15:56:01.047Z,101390.84
2022-10-11T15:58:32.915Z,101391.55
2022-10-11T16:01:13.912Z,101379.67
2022-10-11T16:03:42.192Z,101396.10
2022-10-11T16:06:11.146Z,101398.95
2022-10-11T16:08:39.495Z,101399.89
2022-10-11T16:11:08.816Z,101405.18
2022-10-11T16:13:37.223Z,101403.88
2022-10-11T16:16:07.955Z,101409.47
2022-10-11T16:18:36.885Z,101415.98
2022-10-11T16:21:10.197Z,101413.31
2022-10-11T16:23:50.121Z,101411.73
2022-10-11T16:26:18.512Z,101419.71
2022-10-11T16:28:48.621Z,101422.34
2022-10-11T16:31:20.881Z,101424.91
2022-10-11T16:33:50.323Z,101427.99
2022-10-11T16:36:36.756Z,101430.14
2022-10-11T16:39:14.606Z,101431.98
2022-10-11T16:41:43.562Z,101432.49
2022-10-11T16:44:14.724Z,101433.83
2022-10-11T16:46:42.906Z,101435.42
2022-10-11T16:49:11.070Z,101433.81
2022-10-11T16:51:39.549Z,101434.27
2022-10-11T16:54:07.576Z,101433.60
2022-10-11T16:56:39.757Z,101435.40
2022-10-11T16:59:08.390Z,101440.77
2022-10-11T17:01:37.266Z,101442.94
2022-10-11T17:07:08.267Z,101446.27
2022-10-11T17:09:39.165Z,101447.40
2022-10-11T17:12:16.862Z,101451.63
2022-10-11T17:14:45.051Z,101455.45
2022-10-11T17:17:13.149Z,101458.23
2022-10-11T17:19:45.232Z,101460.96
2022-10-11T17:22:17.102Z,101461.20
2022-10-11T17:24:45.891Z,101464.15
2022-10-11T17:27:14.440Z,101460.28
2022-10-11T17:29:42.489Z,101464.02
2022-10-11T17:32:10.638Z,101462.42
2022-10-11T17:34:38.498Z,101455.33
2022-10-11T17:37:08.872Z,101461.51
2022-10-11T17:39:37.006Z,101463.23
2022-10-11T17:42:07.594Z,101464.20
2022-10-11T17:44:36.086Z,101471.06
2022-10-11T17:47:04.338Z,101469.67
2022-10-11T17:49:32.214Z,101466.41
2022-10-11T17:52:00.565Z,101466.17
2022-10-11T17:54:28.510Z,101468.57
2022-10-11T17:56:56.601Z,101472.45
2022-10-11T17:59:27.565Z,101472.19
2022-10-11T18:01:55.737Z,101474.16
2022-10-11T18:04:26.981Z,101472.60
2022-10-11T18:06:55.273Z,101476.09
2022-10-11T18:09:24.829Z,101465.48
2022-10-11T18:11:53.083Z,101475.00
2022-10-11T18:14:21.329Z,101461.98
2022-10-11T18:16:49.571Z,101477.23
2022-10-11T18:19:17.741Z,101478.02
2022-10-11T18:21:45.949Z,101477.42
2022-10-11T18:24:16.574Z,101483.31
2022-10-11T18:26:46.761Z,101483.06
2022-10-11T18:29:15.156Z,101482.27
2022-10-11T18:31:44.086Z,101488.83
2022-10-11T18:34:13.128Z,101486.39
2022-10-11T18:36:42.074Z,101486.04
2022-10-11T18:39:13.553Z,101488.84
2022-10-11T18:41:44.666Z,101489.83
2022-10-11T18:44:15.516Z,101492.16
2022-10-11T18:46:45.270Z,101494.88
2022-10-11T18:49:14.158Z,101494.73
2022-10-11T18:51:43.192Z,101494.67
2022-10-11T18:54:15.331Z,101496.83
2022-10-11T18:56:47.467Z,101498.83
2022-10-11T18:59:16.252Z,101486.19
2022-10-11T19:01:44.851Z,101500.09
2022-10-11T19:04:16.247Z,101502.88
2022-10-11T19:06:47.997Z,101503.93
2022-10-11T19:09:23.137Z,101504.44
2022-10-11T19:11:53.988Z,101504.44
2022-10-11T19:14:26.185Z,101504.37
2022-10-11T19:16:56.251Z,101504.16
2022-10-11T19:19:27.112Z,101502.10
2022-10-11T19:21:55.546Z,101488.68
2022-10-11T19:24:25.918Z,101502.29
2022-10-11T19:26:59.760Z,101505.09
2022-10-11T19:29:31.154Z,101504.58
2022-10-11T19:32:01.291Z,101505.44
2022-10-11T19:34:32.046Z,101505.69
2022-10-11T19:37:01.307Z,101508.83
2022-10-11T19:39:29.738Z,101507.91
2022-10-11T19:41:57.769Z,101508.09
2022-10-11T19:44:26.100Z,101510.63
2022-10-11T19:46:54.983Z,101502.37
2022-10-11T19:49:25.329Z,101515.59
2022-10-11T19:51:55.689Z,101513.48
2022-10-11T19:54:24.010Z,101474.70
2022-10-11T19:56:52.766Z,101517.91
2022-10-11T19:59:21.002Z,101519.75
2022-10-11T20:01:52.859Z,101521.91
2022-10-11T20:04:50.656Z,101524.54
2022-10-11T20:07:10.600Z,101519.45
2022-10-11T20:09:38.741Z,101520.47
2022-10-11T20:12:07.197Z,101524.16
2022-10-11T20:14:35.230Z,101528.23
2022-10-11T20:17:03.396Z,101532.64
2022-10-11T20:19:31.916Z,101531.52
2022-10-11T20:22:00.991Z,101526.00
2022-10-11T20:24:33.755Z,101532.31
2022-10-11T20:27:04.906Z,101535.89
2022-10-11T20:29:33.492Z,101543.96
2022-10-11T20:32:01.591Z,101539.82
2022-10-11T20:34:30.766Z,101541.79
2022-10-11T20:36:59.689Z,101544.63
2022-10-11T20:39:27.678Z,101538.14
2022-10-11T20:41:55.647Z,101540.30
2022-10-11T20:44:23.833Z,101543.88
2022-10-11T20:46:51.818Z,101542.56
2022-10-11T20:49:20.823Z,101546.52
2022-10-11T20:51:49.138Z,101545.80
2022-10-11T20:54:17.314Z,101546.15
2022-10-11T20:56:45.445Z,101549.77
2022-10-11T20:59:14.057Z,101549.86
2022-10-11T21:01:42.247Z,101546.66
2022-10-11T21:04:17.920Z,101538.70
2022-10-11T21:06:47.049Z,101547.38
2022-10-11T21:09:22.614Z,101552.75
2022-10-11T21:11:50.756Z,101552.10
2022-10-11T21:14:19.336Z,101551.13
2022-10-11T21:16:47.221Z,101552.95
2022-10-11T21:19:15.825Z,101553.44
2022-10-11T21:21:46.433Z,101551.82
2022-10-11T21:24:16.574Z,101552.96
2022-10-11T21:26:44.755Z,101554.67
2022-10-11T21:29:12.886Z,101554.75
2022-10-11T21:31:41.076Z,101552.55
2022-10-11T21:34:10.028Z,101552.79
2022-10-11T21:36:38.960Z,101554.14
2022-10-11T21:39:07.071Z,101551.70
2022-10-11T21:41:35.089Z,101545.67
2022-10-11T21:44:03.480Z,101560.27
2022-10-11T21:47:01.312Z,101547.57
2022-10-11T21:49:21.445Z,101566.42
2022-10-11T21:51:49.457Z,101565.13
2022-10-11T21:54:17.733Z,101563.70
2022-10-11T21:56:45.878Z,101565.38
2022-10-11T21:59:13.900Z,101564.15
2022-10-11T22:01:43.485Z,101565.62
2022-10-11T22:04:12.121Z,101565.08
2022-10-11T22:06:40.693Z,101565.96
2022-10-11T22:09:09.132Z,101567.02
2022-10-11T22:11:37.886Z,101566.21
2022-10-11T22:14:06.107Z,101568.35
2022-10-11T22:16:35.798Z,101567.34
2022-10-11T22:19:04.299Z,101569.14
2022-10-11T22:21:32.451Z,101567.48
2022-10-11T22:24:00.630Z,101567.31
2022-10-11T22:26:31.193Z,101568.96
2022-10-11T22:29:00.570Z,101571.29
2022-10-11T22:31:30.145Z,101569.36
2022-10-11T22:34:00.441Z,101570.50
2022-10-11T22:36:33.955Z,101571.25
2022-10-11T22:39:07.650Z,101568.71
2022-10-11T22:41:36.720Z,101569.70
2022-10-11T22:44:04.927Z,101573.94
2022-10-11T22:46:32.802Z,101576.98
2022-10-11T22:49:00.882Z,101579.30
2022-10-11T22:51:28.819Z,101578.88
2022-10-11T22:53:56.725Z,101565.82
2022-10-11T22:56:24.864Z,101582.25
2022-10-11T22:58:52.718Z,101580.07
2022-10-11T23:01:20.766Z,101583.52
2022-10-11T23:03:50.860Z,101577.83
2022-10-11T23:06:18.925Z,101579.45
2022-10-11T23:08:46.729Z,101578.66
2022-10-11T23:11:14.999Z,101581.35
2022-10-11T23:13:43.092Z,101580.16
2022-10-11T23:16:12.872Z,101580.16
2022-10-11T23:18:42.169Z,101582.52
2022-10-11T23:21:10.762Z,101587.15
2022-10-11T23:23:39.967Z,101587.81
2022-10-11T23:26:12.602Z,101589.22
2022-10-11T23:28:41.866Z,101590.64
2022-10-11T23:31:20.263Z,101588.40
2022-10-11T23:33:48.795Z,101590.90
2022-10-11T23:36:19.548Z,101586.93
2022-10-11T23:39:05.854Z,101591.00
2022-10-11T23:41:33.745Z,101594.23
2022-10-11T23:44:01.770Z,101593.77
2022-10-11T23:46:29.794Z,101591.92
2022-10-11T23:48:57.773Z,101592.46
2022-10-11T23:51:25.840Z,101594.98
2022-10-11T23:53:53.840Z,101593.30
2022-10-11T23:56:22.098Z,101596.23
2022-10-11T23:58:50.184Z,101593.93
